Time;durP1;ratioP1;P1;durP2;ratioP2;P2;SDS_P1;SDS_P2;PMS_P1;PMS_P2;Temp;Humidity;BMP_temperature;BMP_pressure;BME280_temperature;BME280_humidity;BME280_pressure;Samples;Min_cycle;Max_cycle;Signal;HPM_P1;HPM_P2
2023/11/19 00:00:52;;;;;;;0.20;0.20;;;;;;;;;;5011929;28;20247;-71
2023/11/19 00:03:20;;;;;;;0.20;0.20;;;;;;;;;;5020909;28;20195;-71
2023/11/19 00:05:46;;;;;;;0.20;0.20;;;;;;;;;;5012091;28;20312;-72
2023/11/19 00:08:13;;;;;;;0.20;0.20;;;;;;;;;;5020864;28;20507;-71
2023/11/19 00:10:39;;;;;;;0.20;0.20;;;;;;;;;;5012057;28;20241;-72
2023/11/19 00:13:06;;;;;;;0.20;0.20;;;;;;;;;;5020813;28;20234;-71
2023/11/19 00:15:33;;;;;;;0.20;0.20;;;;;;;;;;5012296;28;20242;-71
2023/11/19 00:17:59;;;;;;;0.20;0.20;;;;;;;;;;5020602;28;20423;-71
2023/11/19 00:20:27;;;;;;;0.20;0.20;;;;;;;;;;5012249;28;20233;-72
2023/11/19 00:22:53;;;;;;;0.20;0.20;;;;;;;;;;5020492;28;20277;-71
2023/11/19 00:25:21;;;;;;;0.20;0.20;;;;;;;;;;5012178;28;20412;-72
2023/11/19 00:27:48;;;;;;;0.13;0.13;;;;;;;;;;5020258;28;20280;-71
2023/11/19 00:30:15;;;;;;;0.20;0.20;;;;;;;;;;5011732;28;20264;-71
2023/11/19 00:32:41;;;;;;;0.20;0.20;;;;;;;;;;5020207;28;20208;-72
2023/11/19 00:35:09;;;;;;;0.20;0.20;;;;;;;;;;5020825;28;20238;-71
2023/11/19 00:37:42;;;;;;;0.20;0.20;;;;;;;;;;5009628;28;20533;-72
2023/11/19 00:40:10;;;;;;;0.20;0.20;;;;;;;;;;5019020;28;20225;-71
2023/11/19 00:42:36;;;;;;;0.20;0.20;;;;;;;;;;5019958;28;20224;-71
2023/11/19 00:45:03;;;;;;;0.20;0.20;;;;;;;;;;5020780;28;20201;-71
2023/11/19 00:47:31;;;;;;;0.20;0.20;;;;;;;;;;5010841;28;20241;-71
2023/11/19 00:49:57;;;;;;;0.20;0.20;;;;;;;;;;5020679;28;20268;-71
2023/11/19 00:52:23;;;;;;;0.20;0.20;;;;;;;;;;5010805;28;20253;-70
2023/11/19 00:54:51;;;;;;;0.20;0.20;;;;;;;;;;5021035;28;20272;-71
2023/11/19 00:57:17;;;;;;;0.20;0.20;;;;;;;;;;5010770;28;20312;-71
2023/11/19 00:59:44;;;;;;;0.20;0.20;;;;;;;;;;5020687;28;20433;-71
2023/11/19 01:02:11;;;;;;;0.20;0.20;;;;;;;;;;5010175;28;20245;-71
2023/11/19 01:04:38;;;;;;;0.20;0.20;;;;;;;;;;5020653;28;20205;-71
2023/11/19 01:07:05;;;;;;;0.20;0.20;;;;;;;;;;5010594;28;20252;-71
2023/11/19 01:09:34;;;;;;;0.20;0.20;;;;;;;;;;5020614;28;20272;-71
2023/11/19 01:12:02;;;;;;;0.20;0.20;;;;;;;;;;5010824;28;20247;-71
2023/11/19 01:14:28;;;;;;;0.20;0.20;;;;;;;;;;5020800;28;20381;-71
2023/11/19 01:16:55;;;;;;;0.20;0.20;;;;;;;;;;5010613;28;20237;-71
2023/11/19 01:19:22;;;;;;;0.20;0.20;;;;;;;;;;5020441;28;20213;-71
2023/11/19 01:21:48;;;;;;;0.20;0.20;;;;;;;;;;5010617;28;20245;-71
2023/11/19 01:24:15;;;;;;;0.20;0.20;;;;;;;;;;5020593;28;20398;-71
2023/11/19 01:26:44;;;;;;;0.20;0.20;;;;;;;;;;5010414;28;20259;-70
2023/11/19 01:29:14;;;;;;;0.20;0.20;;;;;;;;;;5020512;28;20464;-70
2023/11/19 01:31:40;;;;;;;0.20;0.20;;;;;;;;;;5010576;28;20494;-70
2023/11/19 01:34:07;;;;;;;0.20;0.20;;;;;;;;;;5020347;28;20207;-70
2023/11/19 01:36:33;;;;;;;0.20;0.20;;;;;;;;;;5010443;28;20238;-70
2023/11/19 01:39:00;;;;;;;0.20;0.20;;;;;;;;;;5020198;28;20292;-70
2023/11/19 01:41:26;;;;;;;0.20;0.20;;;;;;;;;;5010605;28;20242;-70
2023/11/19 01:43:54;;;;;;;0.20;0.20;;;;;;;;;;5020101;28;20205;-70
2023/11/19 01:46:21;;;;;;;0.20;0.20;;;;;;;;;;5010369;28;20241;-70
2023/11/19 01:48:48;;;;;;;0.20;0.20;;;;;;;;;;5019645;28;20241;-70
2023/11/19 01:51:16;;;;;;;0.20;0.20;;;;;;;;;;5010576;28;20445;-70
2023/11/19 01:53:43;;;;;;;0.20;0.20;;;;;;;;;;5019554;28;20205;-70
2023/11/19 01:56:10;;;;;;;0.20;0.20;;;;;;;;;;5010508;28;20300;-70
2023/11/19 01:58:38;;;;;;;0.20;0.20;;;;;;;;;;5019795;28;20272;-70
2023/11/19 02:01:05;;;;;;;0.20;0.20;;;;;;;;;;5011067;28;20319;-70
2023/11/19 02:03:33;;;;;;;0.20;0.20;;;;;;;;;;5022978;28;20345;-70
2023/11/19 02:06:00;;;;;;;0.20;0.20;;;;;;;;;;5013733;28;20244;-70
2023/11/19 02:08:26;;;;;;;0.30;0.30;;;;;;;;;;5022773;28;20299;-70
2023/11/19 02:10:54;;;;;;;0.20;0.20;;;;;;;;;;5013862;28;20486;-70
2023/11/19 02:13:21;;;;;;;0.20;0.20;;;;;;;;;;5022485;28;20209;-71
2023/11/19 02:15:47;;;;;;;0.20;0.20;;;;;;;;;;5014075;28;20241;-70
2023/11/19 02:18:21;;;;;;;0.20;0.20;;;;;;;;;;5022587;28;20394;-70
2023/11/19 02:20:49;;;;;;;0.20;0.20;;;;;;;;;;5013947;28;20669;-70
2023/11/19 02:23:15;;;;;;;0.20;0.20;;;;;;;;;;5022446;28;20451;-70
2023/11/19 02:25:42;;;;;;;0.20;0.20;;;;;;;;;;5013862;28;20453;-71
2023/11/19 02:28:12;;;;;;;0.20;0.20;;;;;;;;;;5022250;28;20268;-70
2023/11/19 02:30:39;;;;;;;0.20;0.20;;;;;;;;;;5013797;28;20248;-70
2023/11/19 02:33:06;;;;;;;0.20;0.20;;;;;;;;;;5022226;28;20252;-70
2023/11/19 02:35:33;;;;;;;0.20;0.20;;;;;;;;;;5013840;28;20249;-70
2023/11/19 02:38:00;;;;;;;0.20;0.20;;;;;;;;;;5021744;28;20453;-71
2023/11/19 02:40:29;;;;;;;0.20;0.20;;;;;;;;;;5013416;28;20306;-70
2023/11/19 02:42:56;;;;;;;0.20;0.20;;;;;;;;;;5021986;28;20239;-71
2023/11/19 02:45:25;;;;;;;0.20;0.20;;;;;;;;;;5013569;28;20206;-71
2023/11/19 02:47:51;;;;;;;0.20;0.20;;;;;;;;;;5021679;28;20229;-70
2023/11/19 02:50:24;;;;;;;0.20;0.20;;;;;;;;;;5013755;28;20272;-70
2023/11/19 02:52:56;;;;;;;0.20;0.20;;;;;;;;;;5021835;28;20437;-70
2023/11/19 02:55:23;;;;;;;0.20;0.20;;;;;;;;;;5013655;28;20265;-71
2023/11/19 02:57:50;;;;;;;0.20;0.20;;;;;;;;;;5021848;28;20232;-70
2023/11/19 03:00:17;;;;;;;0.20;0.20;;;;;;;;;;5013597;28;20237;-70
2023/11/19 03:02:46;;;;;;;0.10;0.10;;;;;;;;;;5021584;28;20217;-70
2023/11/19 03:05:14;;;;;;;0.20;0.20;;;;;;;;;;5013631;28;20276;-70
2023/11/19 03:07:41;;;;;;;0.20;0.20;;;;;;;;;;5021408;28;20233;-70
2023/11/19 03:10:09;;;;;;;0.20;0.20;;;;;;;;;;5022580;28;20390;-70
2023/11/19 03:12:35;;;;;;;0.20;0.20;;;;;;;;;;5011139;28;20214;-70
2023/11/19 03:15:01;;;;;;;0.20;0.20;;;;;;;;;;5022580;28;20234;-71
2023/11/19 03:17:28;;;;;;;0.20;0.20;;;;;;;;;;5012189;28;20460;-71
2023/11/19 03:19:56;;;;;;;0.20;0.20;;;;;;;;;;5022435;28;20210;-70
2023/11/19 03:22:22;;;;;;;0.10;0.10;;;;;;;;;;5012114;28;20489;-71
2023/11/19 03:24:51;;;;;;;0.20;0.20;;;;;;;;;;5022011;28;20209;-70
2023/11/19 03:27:17;;;;;;;0.20;0.20;;;;;;;;;;5012119;28;20476;-70
2023/11/19 03:29:44;;;;;;;0.20;0.20;;;;;;;;;;5022390;28;20536;-71
2023/11/19 03:32:12;;;;;;;0.20;0.20;;;;;;;;;;5012087;28;20242;-70
2023/11/19 03:34:38;;;;;;;0.20;0.20;;;;;;;;;;5021924;28;20207;-71
2023/11/19 03:37:06;;;;;;;0.20;0.20;;;;;;;;;;5011658;28;20264;-70
2023/11/19 03:39:32;;;;;;;0.20;0.20;;;;;;;;;;5021775;28;20226;-70
2023/11/19 03:41:59;;;;;;;0.20;0.20;;;;;;;;;;5011921;28;20307;-71
2023/11/19 03:44:26;;;;;;;0.20;0.20;;;;;;;;;;5021974;28;20230;-71
2023/11/19 03:46:53;;;;;;;0.20;0.20;;;;;;;;;;5011804;28;20451;-71
2023/11/19 03:49:19;;;;;;;0.20;0.20;;;;;;;;;;5021545;28;20237;-71
2023/11/19 03:51:46;;;;;;;0.20;0.20;;;;;;;;;;5011897;28;20241;-71
2023/11/19 03:54:13;;;;;;;0.20;0.20;;;;;;;;;;5021394;28;20207;-72
2023/11/19 03:56:40;;;;;;;0.20;0.20;;;;;;;;;;5011690;28;20259;-71
2023/11/19 03:59:06;;;;;;;0.20;0.20;;;;;;;;;;5021180;28;20201;-71
2023/11/19 04:01:32;;;;;;;0.20;0.20;;;;;;;;;;5011721;28;20260;-72
2023/11/19 04:03:59;;;;;;;0.20;0.20;;;;;;;;;;5021380;28;20206;-72
2023/11/19 04:06:26;;;;;;;0.10;0.10;;;;;;;;;;5011984;28;20242;-71
2023/11/19 04:08:53;;;;;;;0.20;0.20;;;;;;;;;;5021151;28;20257;-71
2023/11/19 04:11:20;;;;;;;0.20;0.20;;;;;;;;;;5011743;28;20248;-71
2023/11/19 04:13:47;;;;;;;0.20;0.20;;;;;;;;;;5021162;28;20447;-71
2023/11/19 04:16:14;;;;;;;0.10;0.10;;;;;;;;;;5011844;28;20455;-71
2023/11/19 04:18:41;;;;;;;0.20;0.20;;;;;;;;;;5020653;28;20216;-71
2023/11/19 04:21:07;;;;;;;0.20;0.20;;;;;;;;;;5011780;28;20257;-72
2023/11/19 04:23:33;;;;;;;0.20;0.20;;;;;;;;;;5020609;28;20242;-72
2023/11/19 04:26:03;;;;;;;0.10;0.10;;;;;;;;;;5011548;28;20269;-71
2023/11/19 04:28:31;;;;;;;0.20;0.20;;;;;;;;;;5020746;28;20400;-72
2023/11/19 04:30:58;;;;;;;0.20;0.20;;;;;;;;;;5011745;28;20420;-71
2023/11/19 04:33:25;;;;;;;0.10;0.10;;;;;;;;;;5020454;28;20213;-71
2023/11/19 04:35:51;;;;;;;0.10;0.10;;;;;;;;;;5011634;28;20248;-72
2023/11/19 04:38:17;;;;;;;0.20;0.20;;;;;;;;;;5019992;28;20225;-72
2023/11/19 04:40:44;;;;;;;0.20;0.20;;;;;;;;;;5011888;28;20270;-72
2023/11/19 04:43:10;;;;;;;0.10;0.10;;;;;;;;;;5020441;28;20557;-72
2023/11/19 04:45:39;;;;;;;0.10;0.10;;;;;;;;;;5011676;28;20263;-71
2023/11/19 04:48:05;;;;;;;0.20;0.20;;;;;;;;;;5019923;28;20306;-71
2023/11/19 04:50:31;;;;;;;0.10;0.10;;;;;;;;;;5011890;28;20329;-72
2023/11/19 04:52:58;;;;;;;0.20;0.20;;;;;;;;;;5020129;28;20230;-71
2023/11/19 04:55:24;;;;;;;0.10;0.10;;;;;;;;;;5011934;28;20279;-72
2023/11/19 04:57:50;;;;;;;0.17;0.17;;;;;;;;;;5019841;28;20209;-71
2023/11/19 05:00:17;;;;;;;0.10;0.10;;;;;;;;;;5011425;28;20505;-72
2023/11/19 05:02:45;;;;;;;0.10;0.10;;;;;;;;;;5019767;28;20205;-72
2023/11/19 05:05:11;;;;;;;0.17;0.17;;;;;;;;;;5011499;28;20458;-71
2023/11/19 05:07:38;;;;;;;0.10;0.10;;;;;;;;;;5019829;28;20233;-71
2023/11/19 05:10:05;;;;;;;0.10;0.10;;;;;;;;;;5020645;28;20506;-71
2023/11/19 05:12:32;;;;;;;0.20;0.20;;;;;;;;;;5010753;28;20246;-71
2023/11/19 05:14:58;;;;;;;0.10;0.10;;;;;;;;;;5020848;28;20215;-71
2023/11/19 05:17:25;;;;;;;0.10;0.10;;;;;;;;;;5010591;28;20262;-72
2023/11/19 05:19:52;;;;;;;0.20;0.20;;;;;;;;;;5020746;28;20213;-72
2023/11/19 05:22:20;;;;;;;0.20;0.20;;;;;;;;;;5010588;28;20318;-71
2023/11/19 05:24:46;;;;;;;0.20;0.20;;;;;;;;;;5020704;28;20264;-71
2023/11/19 05:27:13;;;;;;;0.10;0.10;;;;;;;;;;5010667;28;20271;-71
2023/11/19 05:29:41;;;;;;;0.17;0.17;;;;;;;;;;5020586;28;20238;-72
2023/11/19 05:32:07;;;;;;;0.13;0.13;;;;;;;;;;5010361;28;20561;-72
2023/11/19 05:34:34;;;;;;;0.20;0.20;;;;;;;;;;5020319;28;20211;-72
2023/11/19 05:37:02;;;;;;;0.10;0.10;;;;;;;;;;5011927;28;20268;-71
2023/11/19 05:39:29;;;;;;;0.20;0.20;;;;;;;;;;5023812;28;20230;-71
2023/11/19 05:41:55;;;;;;;0.10;0.10;;;;;;;;;;5013904;28;20288;-71
2023/11/19 05:44:21;;;;;;;0.20;0.20;;;;;;;;;;5023547;28;20234;-71
2023/11/19 05:46:48;;;;;;;0.10;0.10;;;;;;;;;;5013837;28;20256;-72
2023/11/19 05:49:14;;;;;;;0.10;0.10;;;;;;;;;;5023545;28;20227;-73
2023/11/19 05:51:41;;;;;;;0.10;0.10;;;;;;;;;;5013841;28;20442;-72
2023/11/19 05:54:09;;;;;;;0.10;0.10;;;;;;;;;;5023148;28;20278;-71
2023/11/19 05:56:36;;;;;;;0.13;0.13;;;;;;;;;;5013852;28;20262;-71
2023/11/19 05:59:06;;;;;;;0.10;0.10;;;;;;;;;;5022944;28;20199;-71
2023/11/19 06:01:33;;;;;;;0.10;0.10;;;;;;;;;;5013787;28;20243;-71
2023/11/19 06:04:00;;;;;;;0.10;0.10;;;;;;;;;;5022892;28;20235;-71
2023/11/19 06:06:27;;;;;;;0.10;0.10;;;;;;;;;;5013856;28;20330;-71
2023/11/19 06:08:53;;;;;;;0.10;0.10;;;;;;;;;;5022932;28;20250;-72
2023/11/19 06:11:21;;;;;;;0.10;0.10;;;;;;;;;;5013527;28;20267;-72
2023/11/19 06:13:47;;;;;;;0.10;0.10;;;;;;;;;;5022555;28;20219;-72
2023/11/19 06:16:14;;;;;;;0.20;0.20;;;;;;;;;;5013478;28;20244;-72
2023/11/19 06:18:41;;;;;;;0.10;0.10;;;;;;;;;;5022524;28;20269;-72
2023/11/19 06:21:08;;;;;;;0.10;0.10;;;;;;;;;;5013639;28;20269;-72
2023/11/19 06:23:34;;;;;;;0.20;0.20;;;;;;;;;;5022768;28;20212;-72
2023/11/19 06:26:00;;;;;;;0.10;0.10;;;;;;;;;;5013411;28;20244;-72
2023/11/19 06:28:28;;;;;;;0.20;0.20;;;;;;;;;;5022504;28;20236;-72
2023/11/19 06:30:55;;;;;;;0.13;0.13;;;;;;;;;;5013408;28;20249;-73
2023/11/19 06:33:22;;;;;;;0.10;0.10;;;;;;;;;;5022178;28;20274;-72
2023/11/19 06:35:49;;;;;;;0.10;0.10;;;;;;;;;;5013506;28;20242;-72
2023/11/19 06:38:15;;;;;;;0.10;0.10;;;;;;;;;;5022006;28;20545;-72
2023/11/19 06:40:42;;;;;;;0.10;0.10;;;;;;;;;;5013718;28;20360;-72
2023/11/19 06:43:09;;;;;;;0.13;0.13;;;;;;;;;;5022171;28;20278;-73
2023/11/19 06:45:37;;;;;;;0.10;0.10;;;;;;;;;;5013359;28;20260;-73
2023/11/19 06:48:04;;;;;;;0.10;0.10;;;;;;;;;;5021479;28;20209;-72
2023/11/19 06:50:30;;;;;;;0.10;0.10;;;;;;;;;;5013701;28;20649;-72
2023/11/19 06:52:57;;;;;;;0.20;0.20;;;;;;;;;;5021568;28;20247;-72
2023/11/19 06:55:23;;;;;;;0.10;0.10;;;;;;;;;;5013546;28;20454;-72
2023/11/19 06:57:50;;;;;;;0.10;0.10;;;;;;;;;;5021847;28;20241;-72
2023/11/19 07:00:18;;;;;;;0.20;0.20;;;;;;;;;;5013231;28;20197;-72
2023/11/19 07:02:45;;;;;;;0.10;0.10;;;;;;;;;;5021793;28;20489;-72
2023/11/19 07:05:13;;;;;;;0.10;0.10;;;;;;;;;;5013292;28;20216;-72
2023/11/19 07:07:40;;;;;;;0.10;0.10;;;;;;;;;;5021359;28;20314;-72
2023/11/19 07:10:09;;;;;;;0.10;0.10;;;;;;;;;;5022137;28;20258;-72
2023/11/19 07:12:35;;;;;;;0.10;0.10;;;;;;;;;;5011436;28;20219;-72
2023/11/19 07:15:02;;;;;;;0.10;0.10;;;;;;;;;;5022396;28;20232;-72
2023/11/19 07:17:30;;;;;;;0.10;0.10;;;;;;;;;;5012237;28;20255;-72
2023/11/19 07:19:59;;;;;;;0.10;0.10;;;;;;;;;;5022333;28;20209;-72
2023/11/19 07:22:25;;;;;;;0.10;0.10;;;;;;;;;;5012272;28;20437;-72
2023/11/19 07:24:53;;;;;;;0.10;0.10;;;;;;;;;;5022316;28;20276;-72
2023/11/19 07:27:19;;;;;;;0.10;0.10;;;;;;;;;;5012222;28;20253;-72
2023/11/19 07:29:46;;;;;;;0.10;0.10;;;;;;;;;;5022128;28;20475;-72
2023/11/19 07:32:13;;;;;;;0.10;0.10;;;;;;;;;;5012109;28;20241;-72
2023/11/19 07:34:39;;;;;;;0.10;0.10;;;;;;;;;;5022095;28;20376;-73
2023/11/19 07:37:07;;;;;;;0.10;0.10;;;;;;;;;;5011824;28;20309;-72
2023/11/19 07:39:35;;;;;;;0.10;0.10;;;;;;;;;;5022072;28;20293;-72
2023/11/19 07:42:01;;;;;;;0.10;0.10;;;;;;;;;;5011847;28;20241;-72
2023/11/19 07:44:27;;;;;;;0.10;0.10;;;;;;;;;;5021888;28;20228;-72
2023/11/19 07:46:54;;;;;;;0.10;0.10;;;;;;;;;;5011895;28;20261;-72
2023/11/19 07:49:20;;;;;;;0.10;0.10;;;;;;;;;;5021703;28;20412;-72
2023/11/19 07:51:47;;;;;;;0.10;0.10;;;;;;;;;;5011941;28;20430;-72
2023/11/19 07:54:14;;;;;;;0.10;0.10;;;;;;;;;;5021364;28;20250;-73
2023/11/19 07:56:41;;;;;;;0.10;0.10;;;;;;;;;;5011665;28;20465;-72
2023/11/19 07:59:07;;;;;;;0.10;0.10;;;;;;;;;;5020528;28;20547;-72
2023/11/19 08:01:33;;;;;;;0.10;0.10;;;;;;;;;;5011945;28;20501;-72
2023/11/19 08:04:01;;;;;;;0.10;0.10;;;;;;;;;;5021150;28;20273;-72
2023/11/19 08:06:28;;;;;;;0.10;0.10;;;;;;;;;;5011718;28;20247;-72
2023/11/19 08:08:54;;;;;;;0.10;0.10;;;;;;;;;;5021255;28;20260;-71
2023/11/19 08:11:22;;;;;;;0.10;0.10;;;;;;;;;;5011690;28;20312;-72
2023/11/19 08:13:48;;;;;;;0.10;0.10;;;;;;;;;;5021192;28;20213;-72
2023/11/19 08:16:15;;;;;;;0.10;0.10;;;;;;;;;;5011685;28;20571;-72
2023/11/19 08:18:42;;;;;;;0.10;0.10;;;;;;;;;;5021137;28;20229;-72
2023/11/19 08:21:09;;;;;;;0.10;0.10;;;;;;;;;;5011759;28;20320;-72
2023/11/19 08:23:35;;;;;;;0.13;0.13;;;;;;;;;;5020676;28;20205;-72
2023/11/19 08:26:01;;;;;;;0.10;0.10;;;;;;;;;;5011537;28;20252;-72
2023/11/19 08:28:30;;;;;;;0.10;0.10;;;;;;;;;;5020707;28;20240;-72
2023/11/19 08:30:58;;;;;;;0.20;0.20;;;;;;;;;;5011760;28;20350;-71
2023/11/19 08:33:25;;;;;;;0.10;0.10;;;;;;;;;;5020785;28;20212;-71
2023/11/19 08:35:51;;;;;;;0.10;0.10;;;;;;;;;;5011747;28;20267;-72
2023/11/19 08:38:18;;;;;;;0.10;0.10;;;;;;;;;;5020224;28;20263;-71
2023/11/19 08:40:44;;;;;;;0.10;0.10;;;;;;;;;;5011604;28;20311;-72
2023/11/19 08:43:11;;;;;;;0.10;0.10;;;;;;;;;;5020477;28;20521;-72
2023/11/19 08:45:39;;;;;;;0.10;0.10;;;;;;;;;;5011787;28;20492;-72
2023/11/19 08:48:05;;;;;;;0.10;0.10;;;;;;;;;;5020114;28;20225;-72
2023/11/19 08:50:32;;;;;;;0.10;0.10;;;;;;;;;;5011506;28;20253;-72
2023/11/19 08:52:58;;;;;;;0.10;0.10;;;;;;;;;;5020286;28;20244;-72
2023/11/19 08:55:26;;;;;;;0.10;0.10;;;;;;;;;;5011796;28;20283;-72
2023/11/19 08:57:52;;;;;;;0.10;0.10;;;;;;;;;;5019810;28;20268;-72
2023/11/19 09:00:19;;;;;;;0.10;0.10;;;;;;;;;;5011670;28;20434;-72
2023/11/19 09:02:46;;;;;;;0.10;0.10;;;;;;;;;;5020013;28;20380;-72
2023/11/19 09:05:13;;;;;;;0.10;0.10;;;;;;;;;;5011727;28;20241;-72
2023/11/19 09:07:39;;;;;;;0.10;0.10;;;;;;;;;;5019890;28;20217;-72
2023/11/19 09:10:08;;;;;;;0.10;0.10;;;;;;;;;;5021155;28;20294;-72
2023/11/19 09:12:34;;;;;;;0.10;0.10;;;;;;;;;;5013264;28;20281;-72
2023/11/19 09:15:01;;;;;;;0.10;0.10;;;;;;;;;;5023996;28;20216;-72
2023/11/19 09:17:27;;;;;;;0.10;0.10;;;;;;;;;;5014126;28;20262;-72
2023/11/19 09:19:55;;;;;;;0.10;0.10;;;;;;;;;;5023889;28;20235;-72
2023/11/19 09:22:22;;;;;;;0.10;0.10;;;;;;;;;;5014114;28;20255;-72
2023/11/19 09:24:48;;;;;;;0.10;0.10;;;;;;;;;;5023787;28;20235;-72
2023/11/19 09:27:15;;;;;;;0.17;0.17;;;;;;;;;;5014065;28;20246;-72
2023/11/19 09:29:43;;;;;;;0.10;0.10;;;;;;;;;;5023674;28;20226;-72
2023/11/19 09:32:09;;;;;;;0.10;0.10;;;;;;;;;;5013847;28;20249;-72
2023/11/19 09:34:35;;;;;;;0.10;0.10;;;;;;;;;;5023672;28;20282;-72
2023/11/19 09:37:03;;;;;;;0.10;0.10;;;;;;;;;;5013751;28;20497;-72
2023/11/19 09:39:30;;;;;;;0.30;0.30;;;;;;;;;;5023536;28;20263;-72
2023/11/19 09:41:57;;;;;;;0.10;0.10;;;;;;;;;;5013916;28;20480;-72
2023/11/19 09:44:24;;;;;;;0.10;0.10;;;;;;;;;;5023745;28;20215;-72
2023/11/19 09:46:51;;;;;;;0.10;0.10;;;;;;;;;;5013633;28;20288;-72
2023/11/19 09:49:19;;;;;;;0.10;0.10;;;;;;;;;;5023587;28;20273;-72
2023/11/19 09:51:45;;;;;;;0.10;0.10;;;;;;;;;;5013721;28;20241;-72
2023/11/19 09:54:13;;;;;;;0.10;0.10;;;;;;;;;;5023269;28;20207;-73
2023/11/19 09:56:40;;;;;;;0.10;0.10;;;;;;;;;;5013731;28;20289;-72
2023/11/19 09:59:06;;;;;;;0.10;0.10;;;;;;;;;;5023086;28;20210;-72
2023/11/19 10:01:34;;;;;;;0.10;0.10;;;;;;;;;;5013790;28;20249;-72
2023/11/19 10:04:01;;;;;;;0.10;0.10;;;;;;;;;;5023246;28;20206;-72
2023/11/19 10:06:27;;;;;;;0.10;0.10;;;;;;;;;;5013579;28;20258;-72
2023/11/19 10:08:55;;;;;;;0.10;0.10;;;;;;;;;;5023109;28;20417;-72
2023/11/19 10:11:23;;;;;;;0.10;0.10;;;;;;;;;;5013688;28;20581;-72
2023/11/19 10:13:49;;;;;;;0.10;0.10;;;;;;;;;;5022854;28;20282;-72
2023/11/19 10:16:16;;;;;;;0.10;0.10;;;;;;;;;;5013390;28;20244;-72
2023/11/19 10:18:45;;;;;;;0.10;0.10;;;;;;;;;;5022662;28;20238;-72
2023/11/19 10:21:16;;;;;;;0.10;0.10;;;;;;;;;;5013337;28;20247;-72
2023/11/19 10:23:53;;;;;;;0.10;0.10;;;;;;;;;;5022221;28;20201;-72
2023/11/19 10:26:20;;;;;;;0.10;0.10;;;;;;;;;;5013346;28;20243;-71
2023/11/19 10:28:48;;;;;;;0.10;0.10;;;;;;;;;;5022566;28;20234;-72
2023/11/19 10:31:14;;;;;;;0.10;0.10;;;;;;;;;;5013069;28;20267;-72
2023/11/19 10:33:41;;;;;;;0.10;0.10;;;;;;;;;;5022526;28;20199;-72
2023/11/19 10:36:08;;;;;;;0.10;0.10;;;;;;;;;;5013019;28;20242;-72
2023/11/19 10:38:34;;;;;;;0.10;0.10;;;;;;;;;;5022345;28;20262;-72
2023/11/19 10:41:00;;;;;;;0.10;0.10;;;;;;;;;;5013370;28;20255;-71
2023/11/19 10:43:27;;;;;;;0.10;0.10;;;;;;;;;;5022209;28;20231;-72
2023/11/19 10:45:55;;;;;;;0.10;0.10;;;;;;;;;;5013073;28;20254;-72
2023/11/19 10:48:24;;;;;;;0.10;0.10;;;;;;;;;;5022353;28;20208;-72
2023/11/19 10:50:53;;;;;;;0.10;0.10;;;;;;;;;;5013146;28;20303;-72
2023/11/19 10:53:21;;;;;;;0.10;0.10;;;;;;;;;;5022369;28;20235;-72
2023/11/19 10:55:48;;;;;;;0.10;0.10;;;;;;;;;;5013304;28;20265;-72
2023/11/19 10:58:16;;;;;;;0.10;0.10;;;;;;;;;;5021895;28;20204;-72
2023/11/19 11:00:45;;;;;;;0.10;0.10;;;;;;;;;;5013207;28;20248;-72
2023/11/19 11:03:17;;;;;;;0.10;0.10;;;;;;;;;;5021976;28;20209;-73
2023/11/19 11:05:43;;;;;;;0.10;0.10;;;;;;;;;;5012926;28;20306;-72
2023/11/19 11:08:10;;;;;;;0.10;0.10;;;;;;;;;;5021832;28;20214;-73
2023/11/19 11:10:41;;;;;;;0.10;0.10;;;;;;;;;;5012776;28;20248;-72
2023/11/19 11:13:08;;;;;;;0.10;0.10;;;;;;;;;;5021706;28;20234;-72
2023/11/19 11:15:35;;;;;;;0.10;0.10;;;;;;;;;;5013167;28;20448;-72
2023/11/19 11:18:02;;;;;;;0.10;0.10;;;;;;;;;;5021673;28;20209;-72
2023/11/19 11:20:31;;;;;;;0.10;0.10;;;;;;;;;;5012980;28;20253;-73
2023/11/19 11:23:05;;;;;;;0.10;0.10;;;;;;;;;;5021626;28;20211;-72
2023/11/19 11:25:37;;;;;;;0.10;0.10;;;;;;;;;;5013046;28;20501;-72
2023/11/19 11:28:14;;;;;;;0.10;0.10;;;;;;;;;;5021479;28;20205;-72
2023/11/19 11:30:47;;;;;;;0.10;0.10;;;;;;;;;;5012653;28;20261;-73
2023/11/19 11:33:22;;;;;;;0.10;0.10;;;;;;;;;;5021726;28;20195;-72
2023/11/19 11:35:56;;;;;;;0.10;0.10;;;;;;;;;;5012602;28;20246;-72
2023/11/19 11:38:22;;;;;;;0.10;0.10;;;;;;;;;;5021599;28;20200;-72
2023/11/19 11:41:04;;;;;;;0.10;0.10;;;;;;;;;;5012254;28;20243;-72
2023/11/19 11:43:46;;;;;;;0.10;0.10;;;;;;;;;;5020637;28;20208;-72
2023/11/19 11:46:27;;;;;;;0.10;0.10;;;;;;;;;;5012106;28;20275;-72
2023/11/19 11:48:55;;;;;;;0.10;0.10;;;;;;;;;;5020950;28;20221;-72
2023/11/19 11:51:43;;;;;;;0.10;0.10;;;;;;;;;;5012031;28;20557;-72
2023/11/19 11:54:10;;;;;;;0.03;0.03;;;;;;;;;;5021580;28;20194;-71
2023/11/19 11:56:38;;;;;;;0.10;0.10;;;;;;;;;;5011947;28;20242;-71
2023/11/19 11:59:04;;;;;;;0.10;0.10;;;;;;;;;;5021375;28;20278;-71
2023/11/19 12:01:31;;;;;;;0.10;0.10;;;;;;;;;;5011938;28;20430;-71
2023/11/19 12:03:57;;;;;;;0.00;0.00;;;;;;;;;;5021191;28;20226;-71
2023/11/19 12:06:27;;;;;;;0.10;0.10;;;;;;;;;;5011715;28;20271;-71
2023/11/19 12:09:00;;;;;;;0.10;0.10;;;;;;;;;;5021418;28;20194;-71
2023/11/19 12:11:27;;;;;;;0.10;0.10;;;;;;;;;;5011504;28;20239;-71
2023/11/19 12:13:56;;;;;;;0.10;0.10;;;;;;;;;;5021139;28;20240;-71
2023/11/19 12:16:22;;;;;;;0.10;0.10;;;;;;;;;;5011833;28;20241;-71
2023/11/19 12:18:49;;;;;;;0.10;0.10;;;;;;;;;;5021138;28;20242;-71
2023/11/19 12:21:30;;;;;;;0.10;0.10;;;;;;;;;;5011442;28;20310;-71
2023/11/19 12:24:02;;;;;;;0.10;0.10;;;;;;;;;;5021086;28;20196;-71
2023/11/19 12:26:35;;;;;;;0.10;0.10;;;;;;;;;;5011496;28;20243;-72
2023/11/19 12:29:03;;;;;;;0.10;0.10;;;;;;;;;;5021060;28;20273;-71
2023/11/19 12:31:30;;;;;;;0.10;0.10;;;;;;;;;;5011371;28;20238;-72
2023/11/19 12:33:56;;;;;;;0.00;0.00;;;;;;;;;;5020913;28;20208;-72
2023/11/19 12:36:23;;;;;;;0.10;0.10;;;;;;;;;;5011173;28;20248;-72
2023/11/19 12:38:50;;;;;;;0.08;0.08;;;;;;;;;;5020671;28;20262;-72
2023/11/19 12:41:20;;;;;;;0.10;0.10;;;;;;;;;;5011424;28;20255;-72
2023/11/19 12:43:46;;;;;;;0.10;0.10;;;;;;;;;;5020862;28;20275;-72
2023/11/19 12:46:20;;;;;;;0.10;0.10;;;;;;;;;;5010775;28;20242;-72
2023/11/19 12:48:46;;;;;;;0.10;0.10;;;;;;;;;;5020661;28;20236;-71
2023/11/19 12:51:13;;;;;;;0.10;0.10;;;;;;;;;;5011125;28;20256;-72
2023/11/19 12:53:48;;;;;;;0.10;0.10;;;;;;;;;;5020763;28;20272;-72
2023/11/19 12:56:16;;;;;;;0.10;0.10;;;;;;;;;;5011093;28;20289;-72
2023/11/19 12:58:43;;;;;;;0.10;0.10;;;;;;;;;;5020374;28;20206;-71
2023/11/19 13:01:09;;;;;;;0.10;0.10;;;;;;;;;;5011022;28;20302;-71
2023/11/19 13:03:37;;;;;;;0.10;0.10;;;;;;;;;;5020585;28;20536;-71
2023/11/19 13:06:05;;;;;;;0.10;0.10;;;;;;;;;;5010961;28;20240;-71
2023/11/19 13:08:37;;;;;;;0.10;0.10;;;;;;;;;;5020487;28;20206;-71
2023/11/19 13:11:04;;;;;;;0.07;0.07;;;;;;;;;;5010867;28;20240;-71
2023/11/19 13:13:31;;;;;;;0.10;0.10;;;;;;;;;;5020133;28;20234;-71
2023/11/19 13:16:02;;;;;;;0.10;0.10;;;;;;;;;;5010868;28;20308;-72
2023/11/19 13:18:29;;;;;;;0.10;0.10;;;;;;;;;;5020060;28;20491;-72
2023/11/19 13:20:57;;;;;;;0.10;0.10;;;;;;;;;;5010802;28;20309;-72
2023/11/19 13:23:23;;;;;;;0.10;0.10;;;;;;;;;;5020289;28;20208;-72
2023/11/19 13:25:50;;;;;;;0.10;0.10;;;;;;;;;;5011102;28;20580;-72
2023/11/19 13:28:16;;;;;;;0.10;0.10;;;;;;;;;;5020165;28;20257;-72
2023/11/19 13:30:44;;;;;;;0.20;0.20;;;;;;;;;;5011213;28;20619;-72
2023/11/19 13:33:12;;;;;;;0.15;0.15;;;;;;;;;;5019972;28;20277;-72
2023/11/19 13:35:40;;;;;;;0.10;0.10;;;;;;;;;;5011069;28;20255;-72
2023/11/19 13:38:07;;;;;;;0.10;0.10;;;;;;;;;;5019225;28;20228;-72
2023/11/19 13:40:33;;;;;;;0.03;0.03;;;;;;;;;;5011378;28;20239;-72
2023/11/19 13:42:59;;;;;;;0.10;0.10;;;;;;;;;;5019675;28;20206;-70
2023/11/19 13:45:26;;;;;;;0.10;0.10;;;;;;;;;;5011354;28;20279;-72
2023/11/19 13:47:54;;;;;;;0.10;0.10;;;;;;;;;;5019580;28;20251;-72
2023/11/19 13:50:20;;;;;;;0.10;0.10;;;;;;;;;;5010970;28;20224;-73
2023/11/19 13:52:47;;;;;;;0.10;0.10;;;;;;;;;;5019194;28;20212;-73
2023/11/19 13:55:14;;;;;;;0.10;0.10;;;;;;;;;;5011038;28;20213;-73
2023/11/19 13:57:41;;;;;;;0.03;0.03;;;;;;;;;;5020710;28;20448;-72
2023/11/19 14:00:12;;;;;;;0.10;0.10;;;;;;;;;;5023732;28;20215;-73
2023/11/19 14:02:39;;;;;;;0.10;0.10;;;;;;;;;;5012402;28;20211;-73
2023/11/19 14:05:07;;;;;;;0.10;0.10;;;;;;;;;;5023665;28;20273;-73
2023/11/19 14:07:34;;;;;;;0.10;0.10;;;;;;;;;;5012147;28;20229;-73
2023/11/19 14:10:01;;;;;;;0.10;0.10;;;;;;;;;;5023624;28;20435;-73
2023/11/19 14:12:27;;;;;;;0.10;0.10;;;;;;;;;;5013158;28;20266;-72
2023/11/19 14:14:54;;;;;;;0.10;0.10;;;;;;;;;;5023147;28;20203;-72
2023/11/19 14:17:20;;;;;;;0.10;0.10;;;;;;;;;;5013087;28;20315;-74
2023/11/19 14:19:47;;;;;;;0.10;0.10;;;;;;;;;;5023171;28;20244;-73
2023/11/19 14:22:14;;;;;;;0.10;0.10;;;;;;;;;;5013038;28;20250;-73
2023/11/19 14:24:42;;;;;;;0.10;0.10;;;;;;;;;;5023119;28;20245;-73
2023/11/19 14:27:09;;;;;;;0.10;0.10;;;;;;;;;;5012953;28;20275;-73
2023/11/19 14:29:35;;;;;;;0.10;0.10;;;;;;;;;;5023376;28;20416;-73
2023/11/19 14:32:02;;;;;;;0.10;0.10;;;;;;;;;;5013011;28;20631;-73
2023/11/19 14:34:28;;;;;;;0.10;0.10;;;;;;;;;;5023185;28;20207;-73
2023/11/19 14:36:55;;;;;;;0.10;0.10;;;;;;;;;;5012747;28;20438;-72
2023/11/19 14:39:23;;;;;;;0.10;0.10;;;;;;;;;;5022997;28;20469;-73
2023/11/19 14:41:50;;;;;;;0.10;0.10;;;;;;;;;;5012927;28;20243;-73
2023/11/19 14:44:18;;;;;;;0.10;0.10;;;;;;;;;;5022963;28;20208;-73